Time,TemperatureF,DewpointF,PressureIn,WindDirection,WindDirectionDegrees,WindSpeedMPH,WindSpeedGustMPH,Humidity,HourlyPrecipIn,Conditions,Clouds,dailyrainin,SoftwareType,DateUTC
2013-03-06 00:00:00,23.5,21.0,30.01,West,273,0.0,0.0,90,0.00,,,0.02,WeatherDisplay:10.37,2013-03-06 05:00:00,
2013-03-06 00:05:00,23.5,21.0,30.00,SSW,200,1.1,0.0,90,0.00,RA,,0.00,WeatherDisplay:10.37,2013-03-06 05:05:00,
2013-03-06 00:10:00,23.4,20.9,30.01,SW,224,0.0,0.0,90,0.00,,,0.00,WeatherDisplay:10.37,2013-03-06 05:10:00,
2013-03-06 00:15:00,23.4,21.2,30.01,WNW,291,0.0,0.0,91,0.00,,,0.00,WeatherDisplay:10.37,2013-03-06 05:15:00,
2013-03-06 00:20:00,23.2,20.7,30.01,WSW,257,0.0,0.0,90,0.00,,,0.00,WeatherDisplay:10.37,2013-03-06 05:20:00,
2013-03-06 00:25:00,23.0,20.5,30.01,WSW,257,0.0,0.0,90,0.00,,,0.00,WeatherDisplay:10.37,2013-03-06 05:25:00,
2013-03-06 00:30:00,22.7,20.2,30.01,WSW,257,0.0,0.0,90,0.00,,,0.00,WeatherDisplay:10.37,2013-03-06 05:30:00,
2013-03-06 00:35:00,22.3,19.8,30.01,West,259,0.0,0.0,90,0.00,,,0.00,WeatherDisplay:10.37,2013-03-06 05:35:00,
2013-03-06 00:41:00,22.2,20.0,30.01,WSW,257,0.0,0.0,91,0.00,,,0.00,WeatherDisplay:10.37,2013-03-06 05:41:00,
2013-03-06 00:46:00,22.2,20.0,30.01,West,259,0.0,0.0,91,0.00,,,0.00,WeatherDisplay:10.37,2013-03-06 05:46:00,
2013-03-06 00:51:00,22.1,19.9,30.01,West,259,0.0,0.0,91,0.00,,,0.00,WeatherDisplay:10.37,2013-03-06 05:51:00,
2013-03-06 00:56:00,21.8,19.6,30.01,WSW,258,0.0,0.0,91,0.00,,,0.00,WeatherDisplay:10.37,2013-03-06 05:56:00,
2013-03-06 01:01:00,21.4,19.2,30.01,West,259,0.0,0.0,91,0.00,,,0.00,WeatherDisplay:10.37,2013-03-06 06:01:00,
2013-03-06 01:06:00,21.1,18.9,30.01,West,259,0.0,0.0,91,0.00,,,0.00,WeatherDisplay:10.37,2013-03-06 06:06:00,
2013-03-06 01:11:00,20.8,18.6,30.01,West,259,0.0,0.0,91,0.00,,,0.00,WeatherDisplay:10.37,2013-03-06 06:11:00,
2013-03-06 01:16:00,20.6,18.4,30.01,WSW,258,0.0,0.0,91,0.00,,,0.00,WeatherDisplay:10.37,2013-03-06 06:16:00,
2013-03-06 01:21:00,20.5,18.3,30.01,West,259,0.0,0.0,91,0.00,,,0.00,WeatherDisplay:10.37,2013-03-06 06:21:00,
2013-03-06 01:26:00,20.9,18.7,30.01,West,259,0.0,0.0,91,0.00,,,0.00,WeatherDisplay:10.37,2013-03-06 06:26:00,
2013-03-06 01:31:00,21.1,18.9,30.01,NW,318,0.0,0.0,91,0.00,,,0.00,WeatherDisplay:10.37,2013-03-06 06:31:00,
2013-03-06 01:36:00,21.3,19.1,30.00,NNW,345,0.0,0.0,91,0.00,,,0.00,WeatherDisplay:10.37,2013-03-06 06:36:00,
2013-03-06 01:41:00,21.5,19.3,30.01,North,360,0.0,0.0,91,0.00,,,0.00,WeatherDisplay:10.37,2013-03-06 06:41:00,
2013-03-06 01:46:00,21.5,19.3,30.00,NW,316,0.0,0.0,91,0.00,,,0.00,WeatherDisplay:10.37,2013-03-06 06:46:00,
2013-03-06 01:51:00,21.6,19.4,30.01,NNE,30,0.0,0.0,91,0.00,,,0.00,WeatherDisplay:10.37,2013-03-06 06:51:00,
2013-03-06 01:56:00,21.6,19.4,30.00,NNE,27,0.0,0.0,91,0.00,,,0.00,WeatherDisplay:10.37,2013-03-06 06:56:00,
2013-03-06 02:01:00,21.7,19.7,30.00,North,349,0.0,0.0,92,0.00,,,0.00,WeatherDisplay:10.37,2013-03-06 07:01:00,
2013-03-06 02:06:00,21.7,19.7,30.00,South,183,0.0,0.0,92,0.00,,,0.00,WeatherDisplay:10.37,2013-03-06 07:06:00,
2013-03-06 02:11:00,21.6,19.6,30.00,South,183,0.0,0.0,92,0.00,,,0.00,WeatherDisplay:10.37,2013-03-06 07:11:00,
2013-03-06 02:16:00,21.8,19.6,30.00,SW,215,0.0,0.0,91,0.00,,,0.00,WeatherDisplay:10.37,2013-03-06 07:16:00,
2013-03-06 02:21:00,21.9,19.7,30.00,East,93,2.0,2.0,91,0.00,,,0.00,WeatherDisplay:10.37,2013-03-06 07:21:00,
2013-03-06 02:26:00,22.1,19.9,30.00,ESE,103,0.0,0.0,91,0.00,,,0.00,WeatherDisplay:10.37,2013-03-06 07:26:00,
2013-03-06 02:31:00,22.1,20.1,30.00,ESE,105,0.0,0.0,92,0.00,,,0.00,WeatherDisplay:10.37,2013-03-06 07:31:00,
2013-03-06 02:36:00,21.9,19.9,30.00,ESE,105,0.0,0.0,92,0.00,,,0.00,WeatherDisplay:10.37,2013-03-06 07:36:00,
2013-03-06 02:41:00,22.0,19.8,30.00,ESE,105,0.0,0.0,91,0.00,,,0.00,WeatherDisplay:10.37,2013-03-06 07:41:00,
2013-03-06 02:46:00,22.1,20.1,30.00,ESE,104,0.0,0.0,92,0.00,,,0.00,WeatherDisplay:10.37,2013-03-06 07:46:00,
2013-03-06 02:51:00,22.1,19.9,30.00,SW,217,0.0,0.0,91,0.00,,,0.00,WeatherDisplay:10.37,2013-03-06 07:51:00,
2013-03-06 02:56:00,22.2,20.2,30.00,SW,219,0.0,0.0,92,0.00,,,0.00,WeatherDisplay:10.37,2013-03-06 07:56:00,
2013-03-06 03:01:00,22.3,20.3,30.00,SSW,210,0.0,0.0,92,0.00,,,0.00,WeatherDisplay:10.37,2013-03-06 08:01:00,
2013-03-06 03:06:00,22.4,20.4,29.99,SSW,209,0.0,0.0,92,0.00,,,0.00,WeatherDisplay:10.37,2013-03-06 08:06:00,
2013-03-06 03:11:00,22.4,20.4,30.00,SSW,209,1.1,1.1,92,0.00,,,0.00,WeatherDisplay:10.37,2013-03-06 08:11:00,
2013-03-06 03:16:00,22.5,20.5,29.99,NNE,25,1.1,0.0,92,0.00,,,0.00,WeatherDisplay:10.37,2013-03-06 08:16:00,
2013-03-06 03:21:00,22.6,20.6,29.99,NNE,25,0.0,0.0,92,0.00,,,0.00,WeatherDisplay:10.37,2013-03-06 08:21:00,
2013-03-06 03:26:00,22.7,20.7,30.00,NNE,25,0.0,0.0,92,0.00,,,0.00,WeatherDisplay:10.37,2013-03-06 08:26:00,
2013-03-06 03:31:00,22.8,20.8,30.00,West,264,0.0,0.0,92,0.00,,,0.00,WeatherDisplay:10.37,2013-03-06 08:31:00,
2013-03-06 03:36:00,22.8,20.8,30.00,West,264,0.0,0.0,92,0.00,,,0.00,WeatherDisplay:10.37,2013-03-06 08:36:00,
2013-03-06 03:41:00,22.8,20.8,30.00,West,264,0.0,0.0,92,0.00,,,0.00,WeatherDisplay:10.37,2013-03-06 08:41:00,
2013-03-06 03:46:00,22.8,20.8,30.00,West,264,0.0,0.0,92,0.00,,,0.00,WeatherDisplay:10.37,2013-03-06 08:46:00,
2013-03-06 03:51:00,22.7,20.7,30.00,SE,136,1.1,0.0,92,0.00,,,0.00,WeatherDisplay:10.37,2013-03-06 08:51:00,
2013-03-06 03:56:00,23.0,20.8,30.00,SSE,167,0.0,0.0,91,0.00,,,0.00,WeatherDisplay:10.37,2013-03-06 08:56:00,
2013-03-06 04:01:00,23.3,21.1,30.00,ESE,112,1.1,1.1,91,0.00,,,0.00,WeatherDisplay:10.37,2013-03-06 09:01:00,
2013-03-06 04:06:00,23.4,21.4,30.00,ESE,113,0.0,0.1,92,0.00,,,0.00,WeatherDisplay:10.37,2013-03-06 09:06:00,
2013-03-06 04:11:00,23.8,21.6,30.00,ESE,113,0.0,0.0,91,0.00,,,0.00,WeatherDisplay:10.37,2013-03-06 09:11:00,
2013-03-06 04:16:00,24.1,22.1,30.00,ENE,74,0.0,0.0,92,0.00,,,0.00,WeatherDisplay:10.37,2013-03-06 09:16:00,
2013-03-06 04:21:00,24.3,22.3,30.00,SE,131,0.0,0.0,92,0.00,,,0.00,WeatherDisplay:10.37,2013-03-06 09:21:00,
2013-03-06 04:26:00,24.6,22.3,30.00,SSE,155,3.5,3.5,91,0.00,,,0.00,WeatherDisplay:10.37,2013-03-06 09:26:00,
2013-03-06 04:31:00,24.8,22.5,30.00,East,100,0.0,0.0,91,0.00,,,0.00,WeatherDisplay:10.37,2013-03-06 09:31:00,
2013-03-06 04:36:00,25.2,22.9,30.00,East,97,3.5,3.5,91,0.00,,,0.00,WeatherDisplay:10.37,2013-03-06 09:36:00,
2013-03-06 04:41:00,25.4,23.1,30.00,ESE,111,2.3,2.3,91,0.00,,,0.00,WeatherDisplay:10.37,2013-03-06 09:41:00,
2013-03-06 04:46:00,25.5,23.2,30.00,ESE,120,1.1,1.1,91,0.00,,,0.00,WeatherDisplay:10.37,2013-03-06 09:46:00,
2013-03-06 04:51:00,25.5,23.2,30.00,ESE,120,1.1,1.1,91,0.00,,,0.00,WeatherDisplay:10.37,2013-03-06 09:51:00,
2013-03-06 04:56:00,25.7,23.4,30.01,East,87,0.0,0.2,91,0.00,,,0.00,WeatherDisplay:10.37,2013-03-06 09:56:00,
2013-03-06 05:01:00,25.9,23.6,30.01,SSE,160,0.0,0.0,91,0.00,,,0.00,WeatherDisplay:10.37,2013-03-06 10:01:00,
2013-03-06 05:06:00,26.1,23.6,30.01,SSE,158,0.0,0.0,90,0.00,,,0.00,WeatherDisplay:10.37,2013-03-06 10:06:00,
2013-03-06 05:11:00,26.1,23.6,30.01,SE,141,0.0,0.1,90,0.00,,,0.00,WeatherDisplay:10.37,2013-03-06 10:11:00,
2013-03-06 05:16:00,26.2,23.7,30.01,SSE,152,0.0,0.0,90,0.00,,,0.00,WeatherDisplay:10.37,2013-03-06 10:16:00,
2013-03-06 05:21:00,26.3,23.8,30.01,SE,136,0.0,0.0,90,0.00,,,0.00,WeatherDisplay:10.37,2013-03-06 10:21:00,
2013-03-06 05:26:00,26.5,24.0,30.01,East,94,2.3,2.3,90,0.00,,,0.00,WeatherDisplay:10.37,2013-03-06 10:26:00,
2013-03-06 05:31:00,26.8,24.3,30.02,ESE,111,0.0,0.1,90,0.00,,,0.00,WeatherDisplay:10.37,2013-03-06 10:31:00,
2013-03-06 05:36:00,27.2,24.7,30.02,ENE,78,1.1,1.2,90,0.00,,,0.00,WeatherDisplay:10.37,2013-03-06 10:36:00,
2013-03-06 05:41:00,27.5,25.0,30.02,ESE,122,1.1,1.7,90,0.00,,,0.00,WeatherDisplay:10.37,2013-03-06 10:41:00,
2013-03-06 05:47:00,28.0,25.4,30.03,SE,135,1.1,0.0,90,0.00,,,0.00,WeatherDisplay:10.37,2013-03-06 10:47:00,
2013-03-06 05:52:00,28.4,25.6,30.03,WSW,242,1.1,0.0,89,0.00,,,0.00,WeatherDisplay:10.37,2013-03-06 10:52:00,
2013-03-06 05:57:00,28.6,25.8,30.03,South,172,2.3,2.3,89,0.00,,,0.00,WeatherDisplay:10.37,2013-03-06 10:57:00,
2013-03-06 06:02:00,29.4,26.3,30.03,SW,235,5.8,5.8,88,0.00,,,0.00,WeatherDisplay:10.37,2013-03-06 11:02:00,
2013-03-06 06:07:00,29.9,26.8,30.03,ESE,103,5.0,5.0,88,0.00,CLR,,0.00,WeatherDisplay:10.37,2013-03-06 11:07:00,
2013-03-06 06:12:00,30.4,27.0,30.04,ESE,117,3.5,3.5,87,0.00,CLR,,0.00,WeatherDisplay:10.37,2013-03-06 11:12:00,
2013-03-06 06:17:00,30.6,26.9,30.04,SE,132,6.9,6.9,86,0.00,CLR,,0.00,WeatherDisplay:10.37,2013-03-06 11:17:00,
2013-03-06 06:22:00,31.1,27.1,30.04,ENE,66,6.9,6.9,85,0.00,CLR,,0.00,WeatherDisplay:10.37,2013-03-06 11:22:00,
2013-03-06 06:27:00,31.2,27.2,30.04,SE,139,4.6,4.6,85,0.00,CLR,,0.00,WeatherDisplay:10.37,2013-03-06 11:27:00,
2013-03-06 06:32:00,31.2,27.2,30.04,SE,131,4.6,4.6,85,0.00,CLR,,0.00,WeatherDisplay:10.37,2013-03-06 11:32:00,
2013-03-06 06:37:00,31.3,27.3,30.05,WNW,299,2.3,2.3,85,0.00,CLR,,0.00,WeatherDisplay:10.37,2013-03-06 11:37:00,
2013-03-06 06:42:00,31.4,27.4,30.05,SE,144,6.9,6.9,85,0.00,CLR,,0.00,WeatherDisplay:10.37,2013-03-06 11:42:00,
2013-03-06 06:47:00,31.6,27.3,30.05,ESE,108,4.6,4.6,84,0.00,CLR,,0.00,WeatherDisplay:10.37,2013-03-06 11:47:00,
2013-03-06 06:52:00,31.8,27.2,30.05,NNE,30,3.5,3.5,83,0.00,CLR,,0.00,WeatherDisplay:10.37,2013-03-06 11:52:00,
2013-03-06 06:57:00,31.6,27.3,30.05,SE,142,2.3,2.3,84,0.00,CLR,,0.00,WeatherDisplay:10.37,2013-03-06 11:57:00,
2013-03-06 07:02:00,31.6,27.3,30.05,SE,129,4.6,4.6,84,0.00,CLR,,0.00,WeatherDisplay:10.37,2013-03-06 12:02:00,
2013-03-06 07:07:00,31.6,27.3,30.06,SSW,205,2.3,2.3,84,0.00,CLR,,0.00,WeatherDisplay:10.37,2013-03-06 12:07:00,
2013-03-06 07:12:00,31.7,27.4,30.06,ESE,105,1.1,1.1,84,0.00,CLR,,0.00,WeatherDisplay:10.37,2013-03-06 12:12:00,
2013-03-06 07:17:00,31.8,27.2,30.06,ENE,74,3.5,3.5,83,0.00,CLR,,0.00,WeatherDisplay:10.37,2013-03-06 12:17:00,
2013-03-06 07:22:00,31.8,27.2,30.06,ESE,117,3.5,3.5,83,0.00,CLR,,0.00,WeatherDisplay:10.37,2013-03-06 12:22:00,
2013-03-06 07:27:00,32.0,27.4,30.06,East,91,3.5,3.5,83,0.00,CLR,,0.00,WeatherDisplay:10.37,2013-03-06 12:27:00,
2013-03-06 07:32:00,32.1,27.5,30.07,East,93,2.3,2.3,83,0.00,CLR,,0.00,WeatherDisplay:10.37,2013-03-06 12:32:00,
2013-03-06 07:37:00,32.3,27.4,30.07,SSW,198,2.3,2.3,82,0.00,CLR,,0.00,WeatherDisplay:10.37,2013-03-06 12:37:00,
2013-03-06 07:42:00,32.4,27.5,30.07,ESE,121,3.5,3.5,82,0.00,CLR,,0.00,WeatherDisplay:10.37,2013-03-06 12:42:00,
2013-03-06 07:47:00,32.5,27.6,30.07,ESE,114,4.0,4.0,82,0.00,CLR,,0.00,WeatherDisplay:10.37,2013-03-06 12:47:00,
2013-03-06 07:52:00,32.6,27.7,30.07,ESE,114,3.5,3.5,82,0.00,CLR,,0.00,WeatherDisplay:10.37,2013-03-06 12:52:00,
2013-03-06 07:57:00,32.8,27.6,30.08,ESE,113,2.3,2.3,81,0.00,CLR,,0.00,WeatherDisplay:10.37,2013-03-06 12:57:00,
2013-03-06 08:02:00,32.9,27.7,30.08,ESE,115,2.3,2.3,81,0.00,CLR,,0.00,WeatherDisplay:10.37,2013-03-06 13:02:00,
2013-03-06 08:07:00,33.1,27.9,30.08,SSE,148,4.6,4.6,81,0.00,CLR,,0.00,WeatherDisplay:10.37,2013-03-06 13:07:00,
2013-03-06 08:12:00,33.2,27.7,30.08,SE,129,3.5,3.5,80,0.00,CLR,,0.00,WeatherDisplay:10.37,2013-03-06 13:12:00,
2013-03-06 08:17:00,33.3,27.8,30.08,East,91,4.0,4.0,80,0.00,CLR,,0.00,WeatherDisplay:10.37,2013-03-06 13:17:00,
2013-03-06 08:22:00,33.4,28.2,30.08,ESE,108,0.0,0.2,81,0.00,CLR,,0.00,WeatherDisplay:10.37,2013-03-06 13:22:00,
2013-03-06 08:27:00,33.4,28.2,30.09,SSE,157,2.3,2.3,81,0.00,CLR,,0.00,WeatherDisplay:10.37,2013-03-06 13:27:00,
2013-03-06 08:32:00,33.5,28.0,30.09,ESE,105,6.9,6.9,80,0.00,CLR,,0.00,WeatherDisplay:10.37,2013-03-06 13:32:00,
2013-03-06 08:37:00,33.6,28.1,30.09,ENE,72,5.8,5.8,80,0.00,CLR,,0.00,WeatherDisplay:10.37,2013-03-06 13:37:00,
2013-03-06 08:42:00,33.7,28.2,30.09,SE,134,2.3,2.3,80,0.00,CLR,,0.00,WeatherDisplay:10.37,2013-03-06 13:42:00,
2013-03-06 08:48:00,33.8,28.3,30.09,East,100,4.6,4.6,80,0.00,CLR,,0.00,WeatherDisplay:10.37,2013-03-06 13:48:00,
2013-03-06 08:53:00,33.9,28.4,30.09,ENE,70,2.3,2.3,80,0.00,CLR,,0.00,WeatherDisplay:10.37,2013-03-06 13:53:00,
2013-03-06 08:58:00,34.1,28.6,30.09,NNE,29,0.0,0.3,80,0.00,CLR,,0.00,WeatherDisplay:10.37,2013-03-06 13:58:00,
2013-03-06 09:03:00,34.3,28.5,30.09,NNE,22,2.3,2.3,79,0.00,CLR,,0.00,WeatherDisplay:10.37,2013-03-06 14:03:00,
2013-03-06 09:08:00,34.4,28.6,30.09,South,189,1.1,1.1,79,0.00,CLR,,0.00,WeatherDisplay:10.37,2013-03-06 14:08:00,
2013-03-06 09:13:00,34.6,29.1,30.09,ESE,105,5.8,5.8,80,0.00,CLR,,0.00,WeatherDisplay:10.37,2013-03-06 14:13:00,
2013-03-06 09:18:00,34.8,28.6,30.09,ESE,113,3.5,3.5,78,0.00,CLR,,0.00,WeatherDisplay:10.37,2013-03-06 14:18:00,
2013-03-06 09:23:00,35.0,28.8,30.10,ESE,120,3.0,3.0,78,0.00,CLR,,0.00,WeatherDisplay:10.37,2013-03-06 14:23:00,
2013-03-06 09:28:00,35.3,28.8,30.10,SE,138,2.3,2.3,77,0.00,CLR,,0.00,WeatherDisplay:10.37,2013-03-06 14:28:00,
2013-03-06 09:33:00,35.6,29.4,30.09,ESE,105,2.3,2.3,78,0.00,CLR,,0.00,WeatherDisplay:10.37,2013-03-06 14:33:00,
2013-03-06 09:38:00,36.1,29.6,30.10,South,180,2.3,2.3,77,0.00,CLR,,0.00,WeatherDisplay:10.37,2013-03-06 14:38:00,
2013-03-06 09:43:00,36.6,29.7,30.10,ESE,109,6.9,6.9,76,0.00,CLR,,0.00,WeatherDisplay:10.37,2013-03-06 14:43:00,
2013-03-06 09:48:00,36.8,29.6,30.10,SE,131,5.0,5.0,75,0.00,CLR,,0.00,WeatherDisplay:10.37,2013-03-06 14:48:00,
2013-03-06 09:53:00,37.1,29.6,30.10,SE,132,5.8,5.8,74,0.00,CLR,,0.00,WeatherDisplay:10.37,2013-03-06 14:53:00,
2013-03-06 09:58:00,37.7,30.2,30.10,ENE,62,1.1,1.1,74,0.00,CLR,,0.00,WeatherDisplay:10.37,2013-03-06 14:58:00,
2013-03-06 10:03:00,38.0,30.4,30.10,East,99,2.3,2.3,74,0.00,CLR,,0.00,WeatherDisplay:10.37,2013-03-06 15:03:00,
2013-03-06 10:08:00,38.3,30.4,30.10,ENE,63,1.1,1.1,73,0.00,CLR,,0.00,WeatherDisplay:10.37,2013-03-06 15:08:00,
2013-03-06 10:13:00,38.3,30.1,30.10,SE,131,2.3,2.3,72,0.00,CLR,,0.00,WeatherDisplay:10.37,2013-03-06 15:13:00,
2013-03-06 10:18:00,38.3,30.4,30.10,ENE,68,2.3,2.3,73,0.00,CLR,,0.00,WeatherDisplay:10.37,2013-03-06 15:18:00,
2013-03-06 10:23:00,38.5,30.3,30.10,East,79,4.6,4.6,72,0.00,CLR,,0.00,WeatherDisplay:10.37,2013-03-06 15:23:00,
2013-03-06 10:28:00,38.7,30.4,30.10,SSW,195,2.3,2.3,72,0.00,CLR,,0.00,WeatherDisplay:10.37,2013-03-06 15:28:00,
2013-03-06 10:33:00,39.0,30.4,30.10,ENE,64,2.3,2.3,71,0.00,CLR,,0.00,WeatherDisplay:10.37,2013-03-06 15:33:00,
2013-03-06 10:38:00,39.5,30.9,30.09,SSW,195,2.3,2.3,71,0.01,RA,,0.01,WeatherDisplay:10.37,2013-03-06 15:38:00,
2013-03-06 10:43:00,40.2,30.8,30.09,East,85,5.8,5.8,69,0.01,RA,,0.01,WeatherDisplay:10.37,2013-03-06 15:43:00,
2013-03-06 10:48:00,40.6,31.2,30.09,ESE,117,3.5,3.5,69,0.01,CLR,,0.01,WeatherDisplay:10.37,2013-03-06 15:48:00,
2013-03-06 10:53:00,40.8,31.1,30.09,East,92,6.9,6.9,68,0.01,CLR,,0.02,WeatherDisplay:10.37,2013-03-06 15:53:00,
2013-03-06 10:58:00,41.0,30.9,30.09,ENE,69,3.5,3.5,67,0.02,RA,,0.02,WeatherDisplay:10.37,2013-03-06 15:58:00,
2013-03-06 11:03:00,41.3,30.8,30.09,ESE,118,3.5,3.5,66,0.03,RA,,0.03,WeatherDisplay:10.37,2013-03-06 16:03:00,
2013-03-06 11:08:00,41.6,30.7,30.09,ESE,105,6.9,6.9,65,0.04,RA,,0.04,WeatherDisplay:10.37,2013-03-06 16:08:00,
2013-03-06 11:13:00,41.5,30.6,30.10,WNW,299,3.5,3.5,65,0.05,RA,,0.05,WeatherDisplay:10.37,2013-03-06 16:13:00,
2013-03-06 11:18:00,41.6,30.7,30.09,East,79,5.0,5.0,65,0.06,RA,,0.06,WeatherDisplay:10.37,2013-03-06 16:18:00,
2013-03-06 11:23:00,41.8,30.9,30.10,North,356,3.5,3.5,65,0.06,RA,,0.06,WeatherDisplay:10.37,2013-03-06 16:23:00,
2013-03-06 11:29:00,41.8,30.9,30.09,West,266,12.7,12.7,65,0.07,RA,,0.07,WeatherDisplay:10.37,2013-03-06 16:29:00,
2013-03-06 11:34:00,42.1,31.2,30.09,SE,138,5.8,5.8,65,0.08,RA,,0.08,WeatherDisplay:10.37,2013-03-06 16:34:00,
2013-03-06 11:39:00,42.4,31.5,30.10,ESE,118,5.0,5.0,65,0.07,RA,,0.08,WeatherDisplay:10.37,2013-03-06 16:39:00,
2013-03-06 11:44:00,42.7,31.0,30.10,NNE,16,8.1,8.1,63,0.07,CLR,,0.08,WeatherDisplay:10.37,2013-03-06 16:44:00,
2013-03-06 11:49:00,42.8,30.7,30.10,South,172,6.9,6.9,62,0.07,CLR,,0.08,WeatherDisplay:10.37,2013-03-06 16:49:00,
2013-03-06 11:54:00,42.1,30.4,30.10,SE,146,9.2,9.2,63,0.06,CLR,,0.08,WeatherDisplay:10.37,2013-03-06 16:54:00,
2013-03-06 11:59:00,41.9,30.6,30.10,ENE,64,3.5,3.5,64,0.06,CLR,,0.08,WeatherDisplay:10.37,2013-03-06 16:59:00,
2013-03-06 12:04:00,41.9,31.0,30.10,North,349,2.3,2.3,65,0.05,CLR,,0.08,WeatherDisplay:10.37,2013-03-06 17:04:00,
2013-03-06 12:09:00,42.0,31.1,30.10,East,87,2.3,2.3,65,0.04,CLR,,0.08,WeatherDisplay:10.37,2013-03-06 17:09:00,
2013-03-06 12:14:00,41.9,31.0,30.10,ENE,66,1.1,1.1,65,0.03,CLR,,0.08,WeatherDisplay:10.37,2013-03-06 17:14:00,
2013-03-06 12:19:00,42.0,31.1,30.10,SW,214,0.0,0.0,65,0.02,CLR,,0.08,WeatherDisplay:10.37,2013-03-06 17:19:00,
2013-03-06 12:24:00,41.9,30.6,30.10,ESE,115,3.5,3.5,64,0.02,CLR,,0.08,WeatherDisplay:10.37,2013-03-06 17:24:00,
2013-03-06 12:29:00,41.7,31.2,30.10,NE,37,4.0,4.0,66,0.02,RA,,0.09,WeatherDisplay:10.37,2013-03-06 17:29:00,
2013-03-06 12:34:00,41.5,31.4,30.10,NE,56,3.5,3.5,67,0.01,RA,,0.09,WeatherDisplay:10.37,2013-03-06 17:34:00,
2013-03-06 12:39:00,41.5,31.7,30.10,ENE,77,1.1,1.1,68,0.01,CLR,,0.09,WeatherDisplay:10.37,2013-03-06 17:39:00,
2013-03-06 12:44:00,41.6,31.4,30.10,ENE,60,4.6,4.6,67,0.01,CLR,,0.09,WeatherDisplay:10.37,2013-03-06 17:44:00,
2013-03-06 12:49:00,41.8,32.0,30.10,NE,44,2.3,2.3,68,0.01,CLR,,0.09,WeatherDisplay:10.37,2013-03-06 17:49:00,
2013-03-06 12:54:00,41.8,31.6,30.10,NE,42,3.5,3.5,67,0.02,RA,,0.10,WeatherDisplay:10.37,2013-03-06 17:54:00,
2013-03-06 12:59:00,41.5,31.7,30.10,East,90,3.5,3.5,68,0.02,RA,,0.10,WeatherDisplay:10.37,2013-03-06 17:59:00,
2013-03-06 13:04:00,41.2,31.4,30.10,NE,40,1.1,1.3,68,0.02,CLR,,0.10,WeatherDisplay:10.37,2013-03-06 18:04:00,
2013-03-06 13:09:00,41.0,31.6,30.10,NE,52,7.0,7.0,69,0.02,CLR,,0.10,WeatherDisplay:10.37,2013-03-06 18:09:00,
2013-03-06 13:14:00,40.7,31.3,30.10,WSW,241,2.3,2.3,69,0.02,CLR,,0.10,WeatherDisplay:10.37,2013-03-06 18:14:00,
2013-03-06 13:19:00,40.4,31.4,30.10,NNE,33,3.5,3.5,70,0.02,CLR,,0.10,WeatherDisplay:10.37,2013-03-06 18:19:00,
2013-03-06 13:24:00,40.2,31.5,30.10,NE,47,2.3,2.3,71,0.02,CLR,,0.10,WeatherDisplay:10.37,2013-03-06 18:24:00,
2013-03-06 13:29:00,40.1,31.8,30.10,NNE,13,2.3,2.3,72,0.01,CLR,,0.10,WeatherDisplay:10.37,2013-03-06 18:29:00,
2013-03-06 13:34:00,40.0,31.7,30.10,ENE,58,3.5,3.5,72,0.01,CLR,,0.10,WeatherDisplay:10.37,2013-03-06 18:34:00,
2013-03-06 13:39:00,40.0,31.7,30.10,ESE,113,5.0,5.0,72,0.01,CLR,,0.11,WeatherDisplay:10.37,2013-03-06 18:39:00,
2013-03-06 13:44:00,39.9,31.6,30.10,WNW,302,4.6,4.6,72,0.02,RA,,0.11,WeatherDisplay:10.37,2013-03-06 18:44:00,
2013-03-06 13:49:00,40.0,31.7,30.10,ENE,73,3.5,3.5,72,0.02,RA,,0.11,WeatherDisplay:10.37,2013-03-06 18:49:00,
2013-03-06 13:54:00,40.3,32.3,30.10,North,5,2.0,2.0,73,0.01,CLR,,0.11,WeatherDisplay:10.37,2013-03-06 18:54:00,
2013-03-06 13:59:00,40.4,32.4,30.10,WNW,288,3.5,3.5,73,0.01,CLR,,0.11,WeatherDisplay:10.37,2013-03-06 18:59:00,
2013-03-06 14:04:00,40.2,32.6,30.10,West,259,4.6,4.6,74,0.01,CLR,,0.11,WeatherDisplay:10.37,2013-03-06 19:04:00,
2013-03-06 14:10:00,40.1,32.8,30.10,ENE,63,6.0,6.0,75,0.01,CLR,,0.11,WeatherDisplay:10.37,2013-03-06 19:10:00,
2013-03-06 14:15:00,40.0,32.7,30.09,East,84,1.1,1.1,75,0.01,CLR,,0.11,WeatherDisplay:10.37,2013-03-06 19:15:00,
2013-03-06 14:20:00,39.7,32.4,30.09,SSW,200,6.9,6.9,75,0.01,CLR,,0.11,WeatherDisplay:10.37,2013-03-06 19:20:00,
2013-03-06 14:25:00,39.7,32.4,30.10,NNE,32,2.0,2.0,75,0.01,CLR,,0.11,WeatherDisplay:10.37,2013-03-06 19:25:00,
2013-03-06 14:30:00,39.6,32.3,30.10,SSE,161,4.0,4.0,75,0.01,CLR,,0.11,WeatherDisplay:10.37,2013-03-06 19:30:00,
2013-03-06 14:35:00,39.5,32.6,30.10,ENE,70,3.5,3.5,76,0.01,CLR,,0.11,WeatherDisplay:10.37,2013-03-06 19:35:00,
2013-03-06 14:40:00,39.5,32.6,30.10,SE,142,0.0,0.0,76,0.01,CLR,,0.11,WeatherDisplay:10.37,2013-03-06 19:40:00,
2013-03-06 14:45:00,39.5,32.9,30.10,ENE,69,3.5,3.5,77,0.00,CLR,,0.11,WeatherDisplay:10.37,2013-03-06 19:45:00,
2013-03-06 14:50:00,39.7,32.8,30.10,West,271,3.0,3.0,76,0.00,CLR,,0.11,WeatherDisplay:10.37,2013-03-06 19:50:00,
2013-03-06 14:55:00,40.0,33.0,30.10,NE,44,8.0,8.0,76,0.00,CLR,,0.11,WeatherDisplay:10.37,2013-03-06 19:55:00,
2013-03-06 15:00:00,40.0,33.0,30.10,WSW,243,3.5,3.5,76,0.00,CLR,,0.11,WeatherDisplay:10.37,2013-03-06 20:00:00,
2013-03-06 15:05:00,40.0,33.0,30.10,ENE,63,6.0,6.0,76,0.00,CLR,,0.11,WeatherDisplay:10.37,2013-03-06 20:05:00,
2013-03-06 15:10:00,40.0,33.4,30.10,NNE,14,3.5,3.5,77,0.00,CLR,,0.11,WeatherDisplay:10.37,2013-03-06 20:10:00,
2013-03-06 15:15:00,40.1,33.5,30.10,NE,40,3.5,3.5,77,0.00,CLR,,0.11,WeatherDisplay:10.37,2013-03-06 20:15:00,
2013-03-06 15:20:00,40.0,33.4,30.10,ENE,75,3.5,3.5,77,0.00,CLR,,0.11,WeatherDisplay:10.37,2013-03-06 20:20:00,
2013-03-06 15:25:00,39.9,33.3,30.10,ENE,66,2.3,2.3,77,0.00,CLR,,0.11,WeatherDisplay:10.37,2013-03-06 20:25:00,
2013-03-06 15:30:00,39.7,33.4,30.10,ENE,63,3.5,3.5,78,0.00,CLR,,0.11,WeatherDisplay:10.37,2013-03-06 20:30:00,
2013-03-06 15:35:00,39.5,33.2,30.10,NE,51,5.8,5.8,78,0.00,CLR,,0.11,WeatherDisplay:10.37,2013-03-06 20:35:00,
2013-03-06 15:40:00,39.2,32.9,30.10,East,94,5.8,5.8,78,0.00,CLR,,0.11,WeatherDisplay:10.37,2013-03-06 20:40:00,
2013-03-06 15:45:00,39.0,33.0,30.10,ESE,117,2.3,2.3,79,0.00,CLR,,0.11,WeatherDisplay:10.37,2013-03-06 20:45:00,
2013-03-06 15:50:00,38.8,32.8,30.10,NNE,30,3.5,3.5,79,0.00,CLR,,0.11,WeatherDisplay:10.37,2013-03-06 20:50:00,
2013-03-06 15:55:00,38.7,33.1,30.11,NNE,22,3.5,3.5,80,0.00,CLR,,0.11,WeatherDisplay:10.37,2013-03-06 20:55:00,
2013-03-06 16:00:00,38.7,33.1,30.11,SE,138,3.0,3.0,80,0.00,CLR,,0.11,WeatherDisplay:10.37,2013-03-06 21:00:00,
2013-03-06 16:05:00,38.7,33.1,30.11,West,274,5.0,5.0,80,0.00,CLR,,0.11,WeatherDisplay:10.37,2013-03-06 21:05:00,
2013-03-06 16:10:00,38.8,32.8,30.11,NW,309,3.5,3.5,79,0.00,CLR,,0.11,WeatherDisplay:10.37,2013-03-06 21:10:00,
2013-03-06 16:15:00,38.9,32.9,30.11,NE,40,4.6,4.6,79,0.00,CLR,,0.11,WeatherDisplay:10.37,2013-03-06 21:15:00,
2013-03-06 16:20:00,38.9,32.9,30.11,West,266,3.5,3.5,79,0.00,CLR,,0.11,WeatherDisplay:10.37,2013-03-06 21:20:00,
2013-03-06 16:25:00,38.9,32.9,30.11,East,80,5.0,5.0,79,0.00,CLR,,0.11,WeatherDisplay:10.37,2013-03-06 21:25:00,
2013-03-06 16:30:00,38.9,32.9,30.11,North,360,3.5,3.5,79,0.00,CLR,,0.11,WeatherDisplay:10.37,2013-03-06 21:30:00,
2013-03-06 16:35:00,38.9,32.9,30.11,ENE,76,3.5,3.5,79,0.00,CLR,,0.11,WeatherDisplay:10.37,2013-03-06 21:35:00,
2013-03-06 16:41:00,38.9,32.9,30.11,SSE,150,5.8,5.8,79,0.00,CLR,,0.11,WeatherDisplay:10.37,2013-03-06 21:41:00,
2013-03-06 16:46:00,38.9,32.9,30.11,WNW,297,2.3,2.3,79,0.00,CLR,,0.11,WeatherDisplay:10.37,2013-03-06 21:46:00,
2013-03-06 16:51:00,38.8,32.8,30.11,NNW,347,1.1,1.6,79,0.00,CLR,,0.11,WeatherDisplay:10.37,2013-03-06 21:51:00,
2013-03-06 16:56:00,38.7,33.1,30.12,SW,224,3.5,3.5,80,0.00,CLR,,0.11,WeatherDisplay:10.37,2013-03-06 21:56:00,
2013-03-06 17:01:00,38.5,32.9,30.12,NNW,335,5.8,5.8,80,0.00,CLR,,0.11,WeatherDisplay:10.37,2013-03-06 22:01:00,
2013-03-06 17:06:00,38.3,33.0,30.12,NNE,15,6.9,6.9,81,0.00,CLR,,0.11,WeatherDisplay:10.37,2013-03-06 22:06:00,
2013-03-06 17:11:00,38.1,32.8,30.12,WSW,256,2.3,2.3,81,0.00,CLR,,0.11,WeatherDisplay:10.37,2013-03-06 22:11:00,
2013-03-06 17:16:00,38.0,33.0,30.12,NNE,20,3.0,3.0,82,0.00,CLR,,0.11,WeatherDisplay:10.37,2013-03-06 22:16:00,
2013-03-06 17:21:00,37.9,32.9,30.12,NE,44,0.0,0.0,82,0.00,CLR,,0.11,WeatherDisplay:10.37,2013-03-06 22:21:00,
2013-03-06 17:26:00,37.7,33.0,30.12,ENE,63,3.5,3.5,83,0.00,CLR,,0.11,WeatherDisplay:10.37,2013-03-06 22:26:00,
2013-03-06 17:31:00,37.6,33.2,30.13,ENE,77,2.3,2.3,84,0.00,CLR,,0.11,WeatherDisplay:10.37,2013-03-06 22:31:00,
2013-03-06 17:36:00,37.5,33.1,30.13,NNE,28,2.3,2.3,84,0.00,CLR,,0.11,WeatherDisplay:10.37,2013-03-06 22:36:00,
2013-03-06 17:41:00,37.3,32.9,30.13,North,6,1.1,1.1,84,0.00,CLR,,0.11,WeatherDisplay:10.37,2013-03-06 22:41:00,
2013-03-06 17:46:00,37.3,32.9,30.13,ENE,59,2.3,0.0,84,0.00,CLR,,0.11,WeatherDisplay:10.37,2013-03-06 22:46:00,
2013-03-06 17:51:00,37.1,33.0,30.13,WNW,295,1.1,0.0,85,0.00,CLR,,0.11,WeatherDisplay:10.37,2013-03-06 22:51:00,
2013-03-06 17:56:00,37.0,32.9,30.14,West,269,0.0,0.0,85,0.00,CLR,,0.11,WeatherDisplay:10.37,2013-03-06 22:56:00,
2013-03-06 18:01:00,37.0,32.9,30.14,West,269,1.1,1.1,85,0.00,CLR,,0.11,WeatherDisplay:10.37,2013-03-06 23:01:00,
2013-03-06 18:06:00,36.9,32.8,30.14,NNE,32,0.0,0.1,85,0.00,CLR,,0.11,WeatherDisplay:10.37,2013-03-06 23:06:00,
2013-03-06 18:12:00,36.9,33.1,30.14,WSW,250,2.3,2.3,86,0.00,CLR,,0.11,WeatherDisplay:10.37,2013-03-06 23:12:00,
2013-03-06 18:17:00,36.9,33.1,30.14,NNW,345,1.1,1.1,86,0.00,CLR,,0.11,WeatherDisplay:10.37,2013-03-06 23:17:00,
2013-03-06 18:22:00,36.7,32.9,30.14,WNW,282,1.1,0.0,86,0.00,CLR,,0.11,WeatherDisplay:10.37,2013-03-06 23:22:00,
2013-03-06 18:27:00,36.4,32.9,30.14,NE,42,2.3,2.3,87,0.00,CLR,,0.11,WeatherDisplay:10.37,2013-03-06 23:27:00,
2013-03-06 18:32:00,36.3,33.1,30.15,East,88,0.0,0.1,88,0.00,CLR,,0.11,WeatherDisplay:10.37,2013-03-06 23:32:00,
2013-03-06 18:37:00,36.2,33.0,30.15,NNE,29,0.0,0.0,88,0.00,,,0.11,WeatherDisplay:10.37,2013-03-06 23:37:00,
2013-03-06 18:42:00,36.1,33.2,30.15,ESE,122,1.1,1.1,89,0.00,,,0.11,WeatherDisplay:10.37,2013-03-06 23:42:00,
2013-03-06 18:47:00,36.1,33.2,30.15,NNW,328,2.3,2.3,89,0.00,,,0.11,WeatherDisplay:10.37,2013-03-06 23:47:00,
2013-03-06 18:52:00,36.2,33.3,30.15,North,352,3.5,3.5,89,0.00,,,0.11,WeatherDisplay:10.37,2013-03-06 23:52:00,
2013-03-06 18:57:00,36.3,33.1,30.15,West,276,3.5,3.5,88,0.00,,,0.11,WeatherDisplay:10.37,2013-03-06 23:57:00,
2013-03-06 19:02:00,36.3,33.1,30.15,SE,124,1.1,1.1,88,0.00,CLR,,0.11,WeatherDisplay:10.37,2013-03-07 00:02:00,
2013-03-06 19:07:00,36.3,33.1,30.15,WSW,256,1.1,0.0,88,0.00,CLR,,0.11,WeatherDisplay:10.37,2013-03-07 00:07:00,
2013-03-06 19:12:00,36.3,33.1,30.15,ENE,67,1.1,1.1,88,0.01,RA,,0.12,WeatherDisplay:10.37,2013-03-07 00:12:00,
2013-03-06 19:17:00,36.3,33.1,30.15,North,4,1.1,0.0,88,0.01,RA,,0.12,WeatherDisplay:10.37,2013-03-07 00:17:00,
2013-03-06 19:22:00,36.3,33.1,30.15,North,3,0.0,0.0,88,0.01,CLR,,0.12,WeatherDisplay:10.37,2013-03-07 00:22:00,
2013-03-06 19:27:00,36.2,33.0,30.15,NNW,343,0.0,0.0,88,0.01,CLR,,0.12,WeatherDisplay:10.37,2013-03-07 00:27:00,
2013-03-06 19:32:00,36.1,32.9,30.15,NNW,343,0.0,0.0,88,0.01,CLR,,0.12,WeatherDisplay:10.37,2013-03-07 00:32:00,
2013-03-06 19:37:00,36.0,32.8,30.15,North,8,0.0,0.0,88,0.01,CLR,,0.12,WeatherDisplay:10.37,2013-03-07 00:37:00,
2013-03-06 19:42:00,35.9,32.7,30.15,WSW,254,0.0,0.0,88,0.01,CLR,,0.12,WeatherDisplay:10.37,2013-03-07 00:42:00,
2013-03-06 19:47:00,35.8,32.9,30.15,WSW,253,0.0,0.0,89,0.01,CLR,,0.12,WeatherDisplay:10.37,2013-03-07 00:47:00,
2013-03-06 19:52:00,35.7,32.8,30.15,WSW,253,0.0,0.0,89,0.01,CLR,,0.12,WeatherDisplay:10.37,2013-03-07 00:52:00,
2013-03-06 19:57:00,35.6,32.7,30.15,WSW,248,1.1,0.0,89,0.01,CLR,,0.12,WeatherDisplay:10.37,2013-03-07 00:57:00,
2013-03-06 20:02:00,35.6,32.7,30.15,NW,314,0.0,0.0,89,0.01,,,0.12,WeatherDisplay:10.37,2013-03-07 01:02:00,
2013-03-06 20:07:00,35.6,32.7,30.15,WNW,297,0.0,0.0,89,0.01,,,0.12,WeatherDisplay:10.37,2013-03-07 01:07:00,
2013-03-06 20:12:00,35.6,32.7,30.15,West,280,0.0,0.0,89,0.00,,,0.12,WeatherDisplay:10.37,2013-03-07 01:12:00,
2013-03-06 20:17:00,35.6,32.7,30.15,NNW,343,1.1,1.1,89,0.00,,,0.12,WeatherDisplay:10.37,2013-03-07 01:17:00,
2013-03-06 20:22:00,35.5,32.3,30.15,NNW,343,0.0,0.0,88,0.00,,,0.12,WeatherDisplay:10.37,2013-03-07 01:22:00,
2013-03-06 20:28:00,35.6,32.4,30.15,North,352,1.0,0.0,88,0.00,,,0.12,WeatherDisplay:10.37,2013-03-07 01:28:00,
2013-03-06 20:33:00,35.7,32.5,30.15,NE,46,0.0,0.0,88,0.00,,,0.12,WeatherDisplay:10.37,2013-03-07 01:33:00,
2013-03-06 20:38:00,35.8,32.6,30.15,NNE,25,2.3,0.0,88,0.00,,,0.12,WeatherDisplay:10.37,2013-03-07 01:38:00,
2013-03-06 20:43:00,35.8,32.3,30.15,NNE,26,0.0,0.0,87,0.00,,,0.12,WeatherDisplay:10.37,2013-03-07 01:43:00,
2013-03-06 20:48:00,35.7,32.5,30.15,NNW,337,0.0,0.0,88,0.00,,,0.12,WeatherDisplay:10.37,2013-03-07 01:48:00,
2013-03-06 20:53:00,35.6,32.4,30.15,NNW,337,0.0,0.0,88,0.00,,,0.12,WeatherDisplay:10.37,2013-03-07 01:53:00,
2013-03-06 20:58:00,35.6,32.4,30.15,WNW,301,0.0,0.0,88,0.00,,,0.12,WeatherDisplay:10.37,2013-03-07 01:58:00,
2013-03-06 21:03:00,35.6,32.4,30.15,NW,314,0.0,0.0,88,0.00,,,0.12,WeatherDisplay:10.37,2013-03-07 02:03:00,
2013-03-06 21:08:00,35.5,32.3,30.15,ENE,75,1.1,1.1,88,0.00,,,0.12,WeatherDisplay:10.37,2013-03-07 02:08:00,
2013-03-06 21:13:00,35.5,32.3,30.15,NNE,18,1.1,0.0,88,0.00,,,0.12,WeatherDisplay:10.37,2013-03-07 02:13:00,
2013-03-06 21:18:00,35.5,32.0,30.15,WNW,296,0.0,0.0,87,0.00,,,0.12,WeatherDisplay:10.37,2013-03-07 02:18:00,
2013-03-06 21:23:00,35.4,32.2,30.15,WNW,297,0.0,0.0,88,0.00,,,0.12,WeatherDisplay:10.37,2013-03-07 02:23:00,
2013-03-06 21:28:00,35.3,32.1,30.15,WNW,298,0.0,0.0,88,0.00,,,0.12,WeatherDisplay:10.37,2013-03-07 02:28:00,
2013-03-06 21:33:00,35.3,32.1,30.15,NW,316,0.0,0.0,88,0.00,,,0.12,WeatherDisplay:10.37,2013-03-07 02:33:00,
2013-03-06 21:38:00,35.2,32.0,30.15,WNW,301,1.1,0.0,88,0.00,,,0.12,WeatherDisplay:10.37,2013-03-07 02:38:00,
2013-03-06 21:43:00,35.3,32.1,30.15,WNW,294,0.0,0.0,88,0.00,,,0.12,WeatherDisplay:10.37,2013-03-07 02:43:00,
2013-03-06 21:48:00,35.3,32.1,30.15,North,350,0.0,0.0,88,0.00,,,0.12,WeatherDisplay:10.37,2013-03-07 02:48:00,
2013-03-06 21:53:00,35.3,31.8,30.15,North,350,0.0,0.0,87,0.00,,,0.12,WeatherDisplay:10.37,2013-03-07 02:53:00,
2013-03-06 21:58:00,35.5,31.7,30.15,North,350,0.0,0.0,86,0.00,,,0.12,WeatherDisplay:10.37,2013-03-07 02:58:00,
2013-03-06 22:03:00,35.5,31.7,30.15,North,350,0.0,0.0,86,0.00,,,0.12,WeatherDisplay:10.37,2013-03-07 03:03:00,
2013-03-06 22:09:00,35.5,31.7,30.15,North,350,0.0,0.0,86,0.00,,,0.12,WeatherDisplay:10.37,2013-03-07 03:09:00,
2013-03-06 22:14:00,35.6,31.5,30.15,North,349,0.0,0.0,85,0.00,,,0.12,WeatherDisplay:10.37,2013-03-07 03:14:00,
2013-03-06 22:19:00,35.6,31.5,30.15,North,350,0.0,0.0,85,0.00,,,0.12,WeatherDisplay:10.37,2013-03-07 03:19:00,
2013-03-06 22:24:00,35.7,31.3,30.15,North,349,0.0,0.0,84,0.00,,,0.12,WeatherDisplay:10.37,2013-03-07 03:24:00,
2013-03-06 22:29:00,35.6,31.2,30.15,North,350,0.0,0.0,84,0.00,,,0.12,WeatherDisplay:10.37,2013-03-07 03:29:00,
2013-03-06 22:34:00,35.7,31.3,30.15,North,349,0.0,0.0,84,0.00,,,0.12,WeatherDisplay:10.37,2013-03-07 03:34:00,
2013-03-06 22:39:00,35.4,31.0,30.15,NNW,348,0.0,0.0,84,0.00,,,0.12,WeatherDisplay:10.37,2013-03-07 03:39:00,
2013-03-06 22:44:00,35.1,31.0,30.15,North,349,0.0,0.0,85,0.00,,,0.12,WeatherDisplay:10.37,2013-03-07 03:44:00,
2013-03-06 22:49:00,34.8,31.0,30.15,NNW,348,0.0,0.0,86,0.00,,,0.12,WeatherDisplay:10.37,2013-03-07 03:49:00,
2013-03-06 22:54:00,34.7,31.2,30.15,North,349,0.0,0.0,87,0.00,,,0.12,WeatherDisplay:10.37,2013-03-07 03:54:00,
2013-03-06 22:59:00,34.7,31.2,30.15,North,349,0.0,0.0,87,0.00,,,0.12,WeatherDisplay:10.37,2013-03-07 03:59:00,
2013-03-06 23:04:00,34.8,31.3,30.15,North,349,0.0,0.0,87,0.00,,,0.12,WeatherDisplay:10.37,2013-03-07 04:04:00,
2013-03-06 23:09:00,34.8,31.0,30.15,North,349,0.0,0.0,86,0.00,,,0.12,WeatherDisplay:10.37,2013-03-07 04:09:00,
2013-03-06 23:14:00,34.8,31.0,30.15,NNW,348,0.0,0.0,86,0.00,,,0.12,WeatherDisplay:10.37,2013-03-07 04:14:00,
2013-03-06 23:19:00,34.9,30.6,30.15,NNW,348,0.0,0.0,84,0.00,,,0.12,WeatherDisplay:10.37,2013-03-07 04:19:00,
2013-03-06 23:24:00,35.0,30.4,30.15,NNW,348,0.0,0.0,83,0.00,,,0.12,WeatherDisplay:10.37,2013-03-07 04:24:00,
2013-03-06 23:29:00,35.2,30.3,30.15,NNW,348,0.0,0.0,82,0.00,,,0.12,WeatherDisplay:10.37,2013-03-07 04:29:00,
2013-03-06 23:34:00,35.4,30.5,30.15,North,349,0.0,0.0,82,0.00,,,0.12,WeatherDisplay:10.37,2013-03-07 04:34:00,
2013-03-06 23:39:00,35.4,30.1,30.15,North,349,0.0,0.0,81,0.00,,,0.12,WeatherDisplay:10.37,2013-03-07 04:39:00,
2013-03-06 23:44:00,35.4,30.1,30.15,NNW,348,0.0,0.0,81,0.00,,,0.12,WeatherDisplay:10.37,2013-03-07 04:44:00,
2013-03-06 23:49:00,35.3,30.1,30.15,NNW,348,0.0,0.0,81,0.00,,,0.12,WeatherDisplay:10.37,2013-03-07 04:49:00,
2013-03-06 23:54:00,35.2,30.0,30.15,NNW,348,0.0,0.0,81,0.00,,,0.12,WeatherDisplay:10.37,2013-03-07 04:54:00,
2013-03-06 23:59:00,35.1,30.2,30.15,NNW,348,0.0,0.0,82,0.00,,,0.12,WeatherDisplay:10.37,2013-03-07 04:59:00,